sensor_id;sensor_type;location;lat;lon;timestamp;P1;P2;P0
55518;PMS5003;41724;51.176;-0.708;2022-11-25T00:01:46;9;5;
55518;PMS5003;41724;51.176;-0.708;2022-11-25T00:04:13;4;3;
55518;PMS5003;41724;51.176;-0.708;2022-11-25T00:06:41;11;10;
55518;PMS5003;41724;51.176;-0.708;2022-11-25T00:09:09;7;5;
55518;PMS5003;41724;51.176;-0.708;2022-11-25T00:11:38;8;7;
55518;PMS5003;41724;51.176;-0.708;2022-11-25T00:14:07;5;5;
55518;PMS5003;41724;51.176;-0.708;2022-11-25T00:16:38;4;4;
55518;PMS5003;41724;51.176;-0.708;2022-11-25T00:19:04;5;4;
55518;PMS5003;41724;51.176;-0.708;2022-11-25T00:21:32;4;3;
55518;PMS5003;41724;51.176;-0.708;2022-11-25T00:24:00;3;3;
55518;PMS5003;41724;51.176;-0.708;2022-11-25T00:26:29;5;3;
55518;PMS5003;41724;51.176;-0.708;2022-11-25T00:28:58;9;5;
55518;PMS5003;41724;51.176;-0.708;2022-11-25T00:31:28;11;8;
55518;PMS5003;41724;51.176;-0.708;2022-11-25T00:33:57;5;3;
55518;PMS5003;41724;51.176;-0.708;2022-11-25T00:36:24;8;6;
55518;PMS5003;41724;51.176;-0.708;2022-11-25T00:38:54;4;3;
55518;PMS5003;41724;51.176;-0.708;2022-11-25T00:41:23;10;7;
55518;PMS5003;41724;51.176;-0.708;2022-11-25T00:43:50;10;7;
55518;PMS5003;41724;51.176;-0.708;2022-11-25T00:46:17;6;5;
55518;PMS5003;41724;51.176;-0.708;2022-11-25T00:48:44;7;6;
55518;PMS5003;41724;51.176;-0.708;2022-11-25T00:51:11;8;6;
55518;PMS5003;41724;51.176;-0.708;2022-11-25T00:53:39;11;9;
55518;PMS5003;41724;51.176;-0.708;2022-11-25T00:56:06;5;5;
55518;PMS5003;41724;51.176;-0.708;2022-11-25T00:58:33;6;4;
55518;PMS5003;41724;51.176;-0.708;2022-11-25T01:01:00;4;3;
55518;PMS5003;41724;51.176;-0.708;2022-11-25T01:03:27;5;3;
55518;PMS5003;41724;51.176;-0.708;2022-11-25T01:05:54;8;7;
55518;PMS5003;41724;51.176;-0.708;2022-11-25T01:08:27;7;5;
55518;PMS5003;41724;51.176;-0.708;2022-11-25T01:11:00;5;3;
55518;PMS5003;41724;51.176;-0.708;2022-11-25T01:13:30;9;5;
55518;PMS5003;41724;51.176;-0.708;2022-11-25T01:15:59;8;7;
55518;PMS5003;41724;51.176;-0.708;2022-11-25T01:18:27;4;3;
55518;PMS5003;41724;51.176;-0.708;2022-11-25T01:20:54;7;6;
55518;PMS5003;41724;51.176;-0.708;2022-11-25T01:23:21;7;6;
55518;PMS5003;41724;51.176;-0.708;2022-11-25T01:25:49;9;5;
55518;PMS5003;41724;51.176;-0.708;2022-11-25T01:28:17;8;5;
55518;PMS5003;41724;51.176;-0.708;2022-11-25T01:30:44;7;5;
55518;PMS5003;41724;51.176;-0.708;2022-11-25T01:33:11;10;5;
55518;PMS5003;41724;51.176;-0.708;2022-11-25T01:35:38;3;3;
55518;PMS5003;41724;51.176;-0.708;2022-11-25T01:38:05;6;5;
55518;PMS5003;41724;51.176;-0.708;2022-11-25T01:40:31;9;6;
55518;PMS5003;41724;51.176;-0.708;2022-11-25T01:42:58;6;5;
55518;PMS5003;41724;51.176;-0.708;2022-11-25T01:45:34;10;7;
55518;PMS5003;41724;51.176;-0.708;2022-11-25T01:48:05;7;4;
55518;PMS5003;41724;51.176;-0.708;2022-11-25T01:50:38;11;8;
55518;PMS5003;41724;51.176;-0.708;2022-11-25T01:53:07;5;4;
55518;PMS5003;41724;51.176;-0.708;2022-11-25T01:55:43;4;3;
55518;PMS5003;41724;51.176;-0.708;2022-11-25T01:58:14;7;6;
55518;PMS5003;41724;51.176;-0.708;2022-11-25T02:00:44;7;4;
55518;PMS5003;41724;51.176;-0.708;2022-11-25T02:03:12;6;4;
55518;PMS5003;41724;51.176;-0.708;2022-11-25T02:05:40;7;5;
55518;PMS5003;41724;51.176;-0.708;2022-11-25T02:08:14;9;5;
55518;PMS5003;41724;51.176;-0.708;2022-11-25T02:10:44;7;3;
55518;PMS5003;41724;51.176;-0.708;2022-11-25T02:13:12;10;8;
55518;PMS5003;41724;51.176;-0.708;2022-11-25T02:15:40;10;6;
55518;PMS5003;41724;51.176;-0.708;2022-11-25T02:18:08;9;8;
55518;PMS5003;41724;51.176;-0.708;2022-11-25T02:20:36;5;4;
55518;PMS5003;41724;51.176;-0.708;2022-11-25T02:23:06;5;5;
55518;PMS5003;41724;51.176;-0.708;2022-11-25T02:25:38;7;3;
55518;PMS5003;41724;51.176;-0.708;2022-11-25T02:28:08;4;4;
55518;PMS5003;41724;51.176;-0.708;2022-11-25T02:30:38;5;4;
55518;PMS5003;41724;51.176;-0.708;2022-11-25T02:33:06;7;4;
55518;PMS5003;41724;51.176;-0.708;2022-11-25T02:35:34;5;5;
55518;PMS5003;41724;51.176;-0.708;2022-11-25T02:38:05;8;5;
55518;PMS5003;41724;51.176;-0.708;2022-11-25T02:40:35;5;4;
55518;PMS5003;41724;51.176;-0.708;2022-11-25T02:43:09;8;6;
55518;PMS5003;41724;51.176;-0.708;2022-11-25T02:45:45;11;6;
55518;PMS5003;41724;51.176;-0.708;2022-11-25T02:48:19;9;6;
55518;PMS5003;41724;51.176;-0.708;2022-11-25T02:50:47;8;7;
55518;PMS5003;41724;51.176;-0.708;2022-11-25T02:53:15;6;5;
55518;PMS5003;41724;51.176;-0.708;2022-11-25T02:55:47;7;4;
55518;PMS5003;41724;51.176;-0.708;2022-11-25T02:58:14;12;9;
55518;PMS5003;41724;51.176;-0.708;2022-11-25T03:00:43;8;6;
55518;PMS5003;41724;51.176;-0.708;2022-11-25T03:03:11;5;4;
55518;PMS5003;41724;51.176;-0.708;2022-11-25T03:05:39;10;6;
55518;PMS5003;41724;51.176;-0.708;2022-11-25T03:08:06;7;5;
55518;PMS5003;41724;51.176;-0.708;2022-11-25T03:10:34;7;6;
55518;PMS5003;41724;51.176;-0.708;2022-11-25T03:13:02;7;4;
55518;PMS5003;41724;51.176;-0.708;2022-11-25T03:15:30;4;4;
55518;PMS5003;41724;51.176;-0.708;2022-11-25T03:17:58;7;5;
55518;PMS5003;41724;51.176;-0.708;2022-11-25T03:20:25;7;6;
55518;PMS5003;41724;51.176;-0.708;2022-11-25T03:22:57;5;3;
55518;PMS5003;41724;51.176;-0.708;2022-11-25T03:25:24;5;4;
55518;PMS5003;41724;51.176;-0.708;2022-11-25T03:27:51;7;5;
55518;PMS5003;41724;51.176;-0.708;2022-11-25T03:30:22;8;5;
55518;PMS5003;41724;51.176;-0.708;2022-11-25T03:32:51;6;5;
55518;PMS5003;41724;51.176;-0.708;2022-11-25T03:35:18;8;7;
55518;PMS5003;41724;51.176;-0.708;2022-11-25T03:37:46;9;4;
55518;PMS5003;41724;51.176;-0.708;2022-11-25T03:40:14;5;4;
55518;PMS5003;41724;51.176;-0.708;2022-11-25T03:42:42;4;4;
55518;PMS5003;41724;51.176;-0.708;2022-11-25T03:45:10;7;5;
55518;PMS5003;41724;51.176;-0.708;2022-11-25T03:47:39;4;3;
55518;PMS5003;41724;51.176;-0.708;2022-11-25T03:50:07;6;3;
55518;PMS5003;41724;51.176;-0.708;2022-11-25T03:52:36;5;3;
55518;PMS5003;41724;51.176;-0.708;2022-11-25T03:55:05;4;3;
55518;PMS5003;41724;51.176;-0.708;2022-11-25T03:57:33;8;6;
55518;PMS5003;41724;51.176;-0.708;2022-11-25T04:00:00;7;3;
55518;PMS5003;41724;51.176;-0.708;2022-11-25T04:02:29;5;4;
55518;PMS5003;41724;51.176;-0.708;2022-11-25T04:04:56;5;3;
55518;PMS5003;41724;51.176;-0.708;2022-11-25T04:07:23;5;3;
55518;PMS5003;41724;51.176;-0.708;2022-11-25T04:09:51;5;4;
55518;PMS5003;41724;51.176;-0.708;2022-11-25T04:12:18;5;4;
55518;PMS5003;41724;51.176;-0.708;2022-11-25T04:14:45;6;5;
55518;PMS5003;41724;51.176;-0.708;2022-11-25T04:17:12;5;3;
55518;PMS5003;41724;51.176;-0.708;2022-11-25T04:19:39;9;6;
55518;PMS5003;41724;51.176;-0.708;2022-11-25T04:22:06;5;4;
55518;PMS5003;41724;51.176;-0.708;2022-11-25T04:24:34;12;8;
55518;PMS5003;41724;51.176;-0.708;2022-11-25T04:27:02;3;3;
55518;PMS5003;41724;51.176;-0.708;2022-11-25T04:29:30;5;4;
55518;PMS5003;41724;51.176;-0.708;2022-11-25T04:31:57;9;5;
55518;PMS5003;41724;51.176;-0.708;2022-11-25T04:34:24;9;6;
55518;PMS5003;41724;51.176;-0.708;2022-11-25T04:36:52;6;3;
55518;PMS5003;41724;51.176;-0.708;2022-11-25T04:39:20;5;3;
55518;PMS5003;41724;51.176;-0.708;2022-11-25T04:41:47;4;3;
55518;PMS5003;41724;51.176;-0.708;2022-11-25T04:44:14;3;3;
55518;PMS5003;41724;51.176;-0.708;2022-11-25T04:46:42;4;4;
55518;PMS5003;41724;51.176;-0.708;2022-11-25T04:49:10;6;4;
55518;PMS5003;41724;51.176;-0.708;2022-11-25T04:51:36;5;4;
55518;PMS5003;41724;51.176;-0.708;2022-11-25T04:54:04;5;4;
55518;PMS5003;41724;51.176;-0.708;2022-11-25T04:56:31;4;3;
55518;PMS5003;41724;51.176;-0.708;2022-11-25T04:58:58;3;2;
55518;PMS5003;41724;51.176;-0.708;2022-11-25T05:01:25;4;3;
55518;PMS5003;41724;51.176;-0.708;2022-11-25T05:03:52;5;3;
55518;PMS5003;41724;51.176;-0.708;2022-11-25T05:06:20;7;4;
55518;PMS5003;41724;51.176;-0.708;2022-11-25T05:08:47;8;6;
55518;PMS5003;41724;51.176;-0.708;2022-11-25T05:11:15;4;3;
55518;PMS5003;41724;51.176;-0.708;2022-11-25T05:13:43;6;4;
55518;PMS5003;41724;51.176;-0.708;2022-11-25T05:16:10;5;2;
55518;PMS5003;41724;51.176;-0.708;2022-11-25T05:18:37;6;4;
55518;PMS5003;41724;51.176;-0.708;2022-11-25T05:21:04;3;2;
55518;PMS5003;41724;51.176;-0.708;2022-11-25T05:23:32;4;3;
55518;PMS5003;41724;51.176;-0.708;2022-11-25T05:25:59;8;5;
55518;PMS5003;41724;51.176;-0.708;2022-11-25T05:28:27;6;5;
55518;PMS5003;41724;51.176;-0.708;2022-11-25T05:30:55;2;2;
55518;PMS5003;41724;51.176;-0.708;2022-11-25T05:33:22;10;9;
55518;PMS5003;41724;51.176;-0.708;2022-11-25T05:35:55;3;2;
55518;PMS5003;41724;51.176;-0.708;2022-11-25T05:38:24;5;2;
55518;PMS5003;41724;51.176;-0.708;2022-11-25T05:40:51;6;5;
55518;PMS5003;41724;51.176;-0.708;2022-11-25T05:43:19;5;4;
55518;PMS5003;41724;51.176;-0.708;2022-11-25T05:45:46;7;5;
55518;PMS5003;41724;51.176;-0.708;2022-11-25T05:48:13;4;3;
55518;PMS5003;41724;51.176;-0.708;2022-11-25T05:50:40;5;2;
55518;PMS5003;41724;51.176;-0.708;2022-11-25T05:53:07;7;3;
55518;PMS5003;41724;51.176;-0.708;2022-11-25T05:55:34;4;2;
55518;PMS5003;41724;51.176;-0.708;2022-11-25T05:58:01;4;2;
55518;PMS5003;41724;51.176;-0.708;2022-11-25T06:00:29;7;4;
55518;PMS5003;41724;51.176;-0.708;2022-11-25T06:02:56;7;5;
55518;PMS5003;41724;51.176;-0.708;2022-11-25T06:05:24;4;4;
55518;PMS5003;41724;51.176;-0.708;2022-11-25T06:07:51;5;3;
55518;PMS5003;41724;51.176;-0.708;2022-11-25T06:10:19;7;4;
55518;PMS5003;41724;51.176;-0.708;2022-11-25T06:12:46;3;2;
55518;PMS5003;41724;51.176;-0.708;2022-11-25T06:15:13;8;8;
55518;PMS5003;41724;51.176;-0.708;2022-11-25T06:17:40;7;3;
55518;PMS5003;41724;51.176;-0.708;2022-11-25T06:20:07;10;4;
55518;PMS5003;41724;51.176;-0.708;2022-11-25T06:22:35;4;1;
55518;PMS5003;41724;51.176;-0.708;2022-11-25T06:25:02;2;2;
55518;PMS5003;41724;51.176;-0.708;2022-11-25T06:27:30;6;4;
55518;PMS5003;41724;51.176;-0.708;2022-11-25T06:29:57;5;3;
55518;PMS5003;41724;51.176;-0.708;2022-11-25T06:32:25;3;3;
55518;PMS5003;41724;51.176;-0.708;2022-11-25T06:34:51;8;5;
55518;PMS5003;41724;51.176;-0.708;2022-11-25T06:37:19;3;3;
55518;PMS5003;41724;51.176;-0.708;2022-11-25T06:39:46;2;2;
55518;PMS5003;41724;51.176;-0.708;2022-11-25T06:42:18;4;3;
55518;PMS5003;41724;51.176;-0.708;2022-11-25T06:44:45;5;3;
55518;PMS5003;41724;51.176;-0.708;2022-11-25T06:47:12;7;4;
55518;PMS5003;41724;51.176;-0.708;2022-11-25T06:49:39;6;3;
55518;PMS5003;41724;51.176;-0.708;2022-11-25T06:52:06;4;3;
55518;PMS5003;41724;51.176;-0.708;2022-11-25T06:54:33;4;4;
55518;PMS5003;41724;51.176;-0.708;2022-11-25T06:57:00;4;2;
55518;PMS5003;41724;51.176;-0.708;2022-11-25T06:59:28;6;3;
55518;PMS5003;41724;51.176;-0.708;2022-11-25T07:01:55;7;4;
55518;PMS5003;41724;51.176;-0.708;2022-11-25T07:04:22;2;2;
55518;PMS5003;41724;51.176;-0.708;2022-11-25T07:06:48;7;7;
55518;PMS5003;41724;51.176;-0.708;2022-11-25T07:09:15;3;2;
55518;PMS5003;41724;51.176;-0.708;2022-11-25T07:11:43;2;2;
55518;PMS5003;41724;51.176;-0.708;2022-11-25T07:14:12;3;3;
55518;PMS5003;41724;51.176;-0.708;2022-11-25T07:16:40;5;2;
55518;PMS5003;41724;51.176;-0.708;2022-11-25T07:19:10;2;2;
55518;PMS5003;41724;51.176;-0.708;2022-11-25T07:21:38;3;3;
55518;PMS5003;41724;51.176;-0.708;2022-11-25T07:24:07;2;1;
55518;PMS5003;41724;51.176;-0.708;2022-11-25T07:26:36;5;3;
55518;PMS5003;41724;51.176;-0.708;2022-11-25T07:29:05;4;2;
55518;PMS5003;41724;51.176;-0.708;2022-11-25T07:31:34;3;2;
55518;PMS5003;41724;51.176;-0.708;2022-11-25T07:34:04;2;2;
55518;PMS5003;41724;51.176;-0.708;2022-11-25T07:36:33;6;5;
55518;PMS5003;41724;51.176;-0.708;2022-11-25T07:39:03;2;2;
55518;PMS5003;41724;51.176;-0.708;2022-11-25T07:41:33;5;3;
55518;PMS5003;41724;51.176;-0.708;2022-11-25T07:44:01;5;3;
55518;PMS5003;41724;51.176;-0.708;2022-11-25T07:46:29;6;3;
55518;PMS5003;41724;51.176;-0.708;2022-11-25T07:48:58;5;2;
55518;PMS5003;41724;51.176;-0.708;2022-11-25T07:51:27;2;2;
55518;PMS5003;41724;51.176;-0.708;2022-11-25T07:53:56;3;2;
55518;PMS5003;41724;51.176;-0.708;2022-11-25T07:56:24;2;1;
55518;PMS5003;41724;51.176;-0.708;2022-11-25T07:58:52;4;3;
55518;PMS5003;41724;51.176;-0.708;2022-11-25T08:01:20;5;3;
55518;PMS5003;41724;51.176;-0.708;2022-11-25T08:03:48;3;2;
55518;PMS5003;41724;51.176;-0.708;2022-11-25T08:06:17;5;4;
55518;PMS5003;41724;51.176;-0.708;2022-11-25T08:08:46;2;2;
55518;PMS5003;41724;51.176;-0.708;2022-11-25T08:11:14;3;3;
55518;PMS5003;41724;51.176;-0.708;2022-11-25T08:13:44;6;3;
55518;PMS5003;41724;51.176;-0.708;2022-11-25T08:16:12;1;1;
55518;PMS5003;41724;51.176;-0.708;2022-11-25T08:18:41;7;6;
55518;PMS5003;41724;51.176;-0.708;2022-11-25T08:21:10;3;1;
55518;PMS5003;41724;51.176;-0.708;2022-11-25T08:23:39;6;4;
55518;PMS5003;41724;51.176;-0.708;2022-11-25T08:26:09;3;3;
55518;PMS5003;41724;51.176;-0.708;2022-11-25T08:28:38;5;4;
55518;PMS5003;41724;51.176;-0.708;2022-11-25T08:31:07;5;3;
55518;PMS5003;41724;51.176;-0.708;2022-11-25T08:33:41;2;2;
55518;PMS5003;41724;51.176;-0.708;2022-11-25T08:36:10;6;5;
55518;PMS5003;41724;51.176;-0.708;2022-11-25T08:38:38;4;2;
55518;PMS5003;41724;51.176;-0.708;2022-11-25T08:41:08;2;2;
55518;PMS5003;41724;51.176;-0.708;2022-11-25T08:43:36;7;5;
55518;PMS5003;41724;51.176;-0.708;2022-11-25T08:46:06;6;3;
55518;PMS5003;41724;51.176;-0.708;2022-11-25T08:48:34;8;6;
55518;PMS5003;41724;51.176;-0.708;2022-11-25T08:51:01;6;4;
55518;PMS5003;41724;51.176;-0.708;2022-11-25T08:53:35;3;2;
55518;PMS5003;41724;51.176;-0.708;2022-11-25T08:56:03;2;2;
55518;PMS5003;41724;51.176;-0.708;2022-11-25T08:58:30;3;1;
55518;PMS5003;41724;51.176;-0.708;2022-11-25T09:00:58;6;5;
55518;PMS5003;41724;51.176;-0.708;2022-11-25T09:03:26;2;2;
55518;PMS5003;41724;51.176;-0.708;2022-11-25T09:05:54;5;5;
55518;PMS5003;41724;51.176;-0.708;2022-11-25T09:08:21;3;2;
55518;PMS5003;41724;51.176;-0.708;2022-11-25T09:10:48;4;3;
55518;PMS5003;41724;51.176;-0.708;2022-11-25T09:13:16;1;1;
55518;PMS5003;41724;51.176;-0.708;2022-11-25T09:15:43;4;4;
55518;PMS5003;41724;51.176;-0.708;2022-11-25T09:18:10;3;3;
55518;PMS5003;41724;51.176;-0.708;2022-11-25T09:20:38;4;1;
55518;PMS5003;41724;51.176;-0.708;2022-11-25T09:23:06;2;2;
55518;PMS5003;41724;51.176;-0.708;2022-11-25T09:25:34;2;2;
55518;PMS5003;41724;51.176;-0.708;2022-11-25T09:28:02;3;2;
55518;PMS5003;41724;51.176;-0.708;2022-11-25T09:30:30;4;4;
55518;PMS5003;41724;51.176;-0.708;2022-11-25T09:32:57;3;2;
55518;PMS5003;41724;51.176;-0.708;2022-11-25T09:35:24;3;2;
55518;PMS5003;41724;51.176;-0.708;2022-11-25T09:37:51;4;3;
55518;PMS5003;41724;51.176;-0.708;2022-11-25T09:40:19;5;4;
55518;PMS5003;41724;51.176;-0.708;2022-11-25T09:42:54;4;1;
55518;PMS5003;41724;51.176;-0.708;2022-11-25T09:45:26;4;3;
55518;PMS5003;41724;51.176;-0.708;2022-11-25T09:48:07;4;3;
55518;PMS5003;41724;51.176;-0.708;2022-11-25T09:50:50;7;4;
55518;PMS5003;41724;51.176;-0.708;2022-11-25T09:53:28;4;4;
55518;PMS5003;41724;51.176;-0.708;2022-11-25T09:56:08;4;3;
55518;PMS5003;41724;51.176;-0.708;2022-11-25T09:58:39;6;3;
55518;PMS5003;41724;51.176;-0.708;2022-11-25T10:01:14;8;5;
55518;PMS5003;41724;51.176;-0.708;2022-11-25T10:03:44;9;7;
55518;PMS5003;41724;51.176;-0.708;2022-11-25T10:06:16;5;3;
55518;PMS5003;41724;51.176;-0.708;2022-11-25T10:08:48;5;4;
55518;PMS5003;41724;51.176;-0.708;2022-11-25T10:11:26;3;3;
55518;PMS5003;41724;51.176;-0.708;2022-11-25T10:14:02;4;4;
55518;PMS5003;41724;51.176;-0.708;2022-11-25T10:16:41;5;5;
55518;PMS5003;41724;51.176;-0.708;2022-11-25T10:19:17;4;4;
55518;PMS5003;41724;51.176;-0.708;2022-11-25T10:21:51;3;2;
55518;PMS5003;41724;51.176;-0.708;2022-11-25T10:24:18;4;2;
55518;PMS5003;41724;51.176;-0.708;2022-11-25T10:26:47;4;2;
55518;PMS5003;41724;51.176;-0.708;2022-11-25T10:29:21;3;2;
55518;PMS5003;41724;51.176;-0.708;2022-11-25T10:31:50;3;2;
55518;PMS5003;41724;51.176;-0.708;2022-11-25T10:34:30;3;3;
55518;PMS5003;41724;51.176;-0.708;2022-11-25T10:37:04;5;3;
55518;PMS5003;41724;51.176;-0.708;2022-11-25T10:39:37;7;5;
55518;PMS5003;41724;51.176;-0.708;2022-11-25T10:42:07;8;6;
55518;PMS5003;41724;51.176;-0.708;2022-11-25T10:44:45;3;3;
55518;PMS5003;41724;51.176;-0.708;2022-11-25T10:47:19;2;2;
55518;PMS5003;41724;51.176;-0.708;2022-11-25T10:50:03;3;3;
55518;PMS5003;41724;51.176;-0.708;2022-11-25T10:52:40;6;4;
55518;PMS5003;41724;51.176;-0.708;2022-11-25T10:55:16;7;4;
55518;PMS5003;41724;51.176;-0.708;2022-11-25T10:57:46;6;3;
55518;PMS5003;41724;51.176;-0.708;2022-11-25T11:00:30;2;2;
55518;PMS5003;41724;51.176;-0.708;2022-11-25T11:03:00;5;4;
55518;PMS5003;41724;51.176;-0.708;2022-11-25T11:06:28;3;3;
55518;PMS5003;41724;51.176;-0.708;2022-11-25T11:08:57;2;2;
55518;PMS5003;41724;51.176;-0.708;2022-11-25T11:11:24;3;2;
55518;PMS5003;41724;51.176;-0.708;2022-11-25T11:13:57;3;3;
55518;PMS5003;41724;51.176;-0.708;2022-11-25T11:16:38;5;4;
55518;PMS5003;41724;51.176;-0.708;2022-11-25T11:19:20;2;2;
55518;PMS5003;41724;51.176;-0.708;2022-11-25T11:21:49;4;3;
55518;PMS5003;41724;51.176;-0.708;2022-11-25T11:24:23;7;5;
55518;PMS5003;41724;51.176;-0.708;2022-11-25T11:27:13;3;2;
55518;PMS5003;41724;51.176;-0.708;2022-11-25T11:29:51;3;3;
55518;PMS5003;41724;51.176;-0.708;2022-11-25T11:32:35;3;2;
55518;PMS5003;41724;51.176;-0.708;2022-11-25T11:35:11;3;3;
55518;PMS5003;41724;51.176;-0.708;2022-11-25T11:37:48;3;2;
55518;PMS5003;41724;51.176;-0.708;2022-11-25T11:40:22;3;1;
55518;PMS5003;41724;51.176;-0.708;2022-11-25T11:42:59;3;2;
55518;PMS5003;41724;51.176;-0.708;2022-11-25T11:45:47;1;1;
55518;PMS5003;41724;51.176;-0.708;2022-11-25T11:48:25;3;3;
55518;PMS5003;41724;51.176;-0.708;2022-11-25T11:50:59;2;1;
55518;PMS5003;41724;51.176;-0.708;2022-11-25T11:53:35;3;1;
55518;PMS5003;41724;51.176;-0.708;2022-11-25T11:56:13;1;1;
55518;PMS5003;41724;51.176;-0.708;2022-11-25T11:58:56;1;0;
55518;PMS5003;41724;51.176;-0.708;2022-11-25T12:01:44;2;1;
55518;PMS5003;41724;51.176;-0.708;2022-11-25T12:04:28;3;2;
55518;PMS5003;41724;51.176;-0.708;2022-11-25T12:07:04;2;2;
55518;PMS5003;41724;51.176;-0.708;2022-11-25T12:09:42;4;2;
55518;PMS5003;41724;51.176;-0.708;2022-11-25T12:12:15;3;2;
55518;PMS5003;41724;51.176;-0.708;2022-11-25T12:14:45;2;2;
55518;PMS5003;41724;51.176;-0.708;2022-11-25T12:17:16;2;1;
55518;PMS5003;41724;51.176;-0.708;2022-11-25T12:19:51;3;1;
55518;PMS5003;41724;51.176;-0.708;2022-11-25T12:22:24;3;3;
55518;PMS5003;41724;51.176;-0.708;2022-11-25T12:24:57;2;2;
55518;PMS5003;41724;51.176;-0.708;2022-11-25T12:27:30;4;1;
55518;PMS5003;41724;51.176;-0.708;2022-11-25T12:30:02;6;6;
55518;PMS5003;41724;51.176;-0.708;2022-11-25T12:32:42;4;2;
55518;PMS5003;41724;51.176;-0.708;2022-11-25T12:35:17;1;1;
55518;PMS5003;41724;51.176;-0.708;2022-11-25T12:37:53;9;4;
55518;PMS5003;41724;51.176;-0.708;2022-11-25T12:40:28;2;2;
55518;PMS5003;41724;51.176;-0.708;2022-11-25T12:43:04;3;2;
55518;PMS5003;41724;51.176;-0.708;2022-11-25T12:45:40;2;2;
55518;PMS5003;41724;51.176;-0.708;2022-11-25T12:48:09;4;3;
55518;PMS5003;41724;51.176;-0.708;2022-11-25T12:50:40;3;2;
55518;PMS5003;41724;51.176;-0.708;2022-11-25T12:53:16;2;1;
55518;PMS5003;41724;51.176;-0.708;2022-11-25T12:55:50;4;2;
55518;PMS5003;41724;51.176;-0.708;2022-11-25T12:58:26;3;3;
55518;PMS5003;41724;51.176;-0.708;2022-11-25T13:02:13;6;5;
55518;PMS5003;41724;51.176;-0.708;2022-11-25T13:05:11;4;4;
55518;PMS5003;41724;51.176;-0.708;2022-11-25T13:08:27;6;4;
55518;PMS5003;41724;51.176;-0.708;2022-11-25T13:11:22;3;3;
55518;PMS5003;41724;51.176;-0.708;2022-11-25T13:14:40;3;3;
55518;PMS5003;41724;51.176;-0.708;2022-11-25T13:17:30;2;2;
55518;PMS5003;41724;51.176;-0.708;2022-11-25T13:20:38;4;3;
55518;PMS5003;41724;51.176;-0.708;2022-11-25T13:23:20;2;2;
55518;PMS5003;41724;51.176;-0.708;2022-11-25T13:25:51;2;1;
55518;PMS5003;41724;51.176;-0.708;2022-11-25T13:28:27;4;1;
55518;PMS5003;41724;51.176;-0.708;2022-11-25T13:31:16;2;1;
55518;PMS5003;41724;51.176;-0.708;2022-11-25T13:33:53;4;3;
55518;PMS5003;41724;51.176;-0.708;2022-11-25T13:36:42;4;4;
55518;PMS5003;41724;51.176;-0.708;2022-11-25T13:39:13;1;1;
55518;PMS5003;41724;51.176;-0.708;2022-11-25T13:41:43;3;2;
55518;PMS5003;41724;51.176;-0.708;2022-11-25T13:44:18;3;3;
55518;PMS5003;41724;51.176;-0.708;2022-11-25T13:46:49;9;9;
55518;PMS5003;41724;51.176;-0.708;2022-11-25T13:49:21;8;6;
55518;PMS5003;41724;51.176;-0.708;2022-11-25T13:52:01;3;2;
55518;PMS5003;41724;51.176;-0.708;2022-11-25T13:54:33;3;2;
55518;PMS5003;41724;51.176;-0.708;2022-11-25T13:57:37;15;12;
55518;PMS5003;41724;51.176;-0.708;2022-11-25T14:00:24;4;3;
55518;PMS5003;41724;51.176;-0.708;2022-11-25T14:03:53;3;3;
55518;PMS5003;41724;51.176;-0.708;2022-11-25T14:06:27;5;4;
55518;PMS5003;41724;51.176;-0.708;2022-11-25T14:09:03;2;2;
55518;PMS5003;41724;51.176;-0.708;2022-11-25T14:11:41;4;3;
55518;PMS5003;41724;51.176;-0.708;2022-11-25T14:14:28;6;6;
55518;PMS5003;41724;51.176;-0.708;2022-11-25T14:16:50;6;6;
55518;PMS5003;41724;51.176;-0.708;2022-11-25T14:19:36;13;11;
55518;PMS5003;41724;51.176;-0.708;2022-11-25T14:22:20;26;24;
55518;PMS5003;41724;51.176;-0.708;2022-11-25T14:24:59;6;5;
55518;PMS5003;41724;51.176;-0.708;2022-11-25T14:27:39;19;17;
55518;PMS5003;41724;51.176;-0.708;2022-11-25T14:30:12;7;5;
55518;PMS5003;41724;51.176;-0.708;2022-11-25T14:32:42;12;9;
55518;PMS5003;41724;51.176;-0.708;2022-11-25T14:35:17;13;10;
55518;PMS5003;41724;51.176;-0.708;2022-11-25T14:37:48;15;13;
55518;PMS5003;41724;51.176;-0.708;2022-11-25T14:40:19;8;7;
55518;PMS5003;41724;51.176;-0.708;2022-11-25T14:42:50;8;5;
55518;PMS5003;41724;51.176;-0.708;2022-11-25T14:45:25;6;6;
55518;PMS5003;41724;51.176;-0.708;2022-11-25T14:47:54;6;4;
55518;PMS5003;41724;51.176;-0.708;2022-11-25T14:50:22;6;4;
55518;PMS5003;41724;51.176;-0.708;2022-11-25T14:52:49;7;6;
55518;PMS5003;41724;51.176;-0.708;2022-11-25T14:55:22;14;14;
55518;PMS5003;41724;51.176;-0.708;2022-11-25T14:57:53;19;17;
55518;PMS5003;41724;51.176;-0.708;2022-11-25T15:00:21;25;23;
55518;PMS5003;41724;51.176;-0.708;2022-11-25T15:02:52;14;12;
55518;PMS5003;41724;51.176;-0.708;2022-11-25T15:05:22;15;13;
55518;PMS5003;41724;51.176;-0.708;2022-11-25T15:07:54;8;5;
55518;PMS5003;41724;51.176;-0.708;2022-11-25T15:10:29;12;9;
55518;PMS5003;41724;51.176;-0.708;2022-11-25T15:13:08;26;22;
55518;PMS5003;41724;51.176;-0.708;2022-11-25T15:15:46;16;15;
55518;PMS5003;41724;51.176;-0.708;2022-11-25T15:18:16;16;12;
55518;PMS5003;41724;51.176;-0.708;2022-11-25T15:20:47;10;8;
55518;PMS5003;41724;51.176;-0.708;2022-11-25T15:23:18;8;8;
55518;PMS5003;41724;51.176;-0.708;2022-11-25T15:25:50;8;7;
55518;PMS5003;41724;51.176;-0.708;2022-11-25T15:28:18;5;5;
55518;PMS5003;41724;51.176;-0.708;2022-11-25T15:30:54;12;10;
55518;PMS5003;41724;51.176;-0.708;2022-11-25T15:33:23;5;5;
55518;PMS5003;41724;51.176;-0.708;2022-11-25T15:35:51;5;5;
55518;PMS5003;41724;51.176;-0.708;2022-11-25T15:38:19;8;5;
55518;PMS5003;41724;51.176;-0.708;2022-11-25T15:41:02;15;11;
55518;PMS5003;41724;51.176;-0.708;2022-11-25T15:43:30;5;5;
55518;PMS5003;41724;51.176;-0.708;2022-11-25T15:45:59;9;8;
55518;PMS5003;41724;51.176;-0.708;2022-11-25T15:48:29;8;7;
55518;PMS5003;41724;51.176;-0.708;2022-11-25T15:51:01;6;6;
55518;PMS5003;41724;51.176;-0.708;2022-11-25T15:53:30;10;6;
55518;PMS5003;41724;51.176;-0.708;2022-11-25T15:56:01;6;5;
55518;PMS5003;41724;51.176;-0.708;2022-11-25T15:58:31;13;9;
55518;PMS5003;41724;51.176;-0.708;2022-11-25T16:01:00;9;5;
55518;PMS5003;41724;51.176;-0.708;2022-11-25T16:03:28;8;7;
55518;PMS5003;41724;51.176;-0.708;2022-11-25T16:05:56;5;4;
55518;PMS5003;41724;51.176;-0.708;2022-11-25T16:08:29;5;5;
55518;PMS5003;41724;51.176;-0.708;2022-11-25T16:11:09;9;6;
55518;PMS5003;41724;51.176;-0.708;2022-11-25T16:13:38;8;7;
55518;PMS5003;41724;51.176;-0.708;2022-11-25T16:16:12;9;8;
55518;PMS5003;41724;51.176;-0.708;2022-11-25T16:18:44;6;5;
55518;PMS5003;41724;51.176;-0.708;2022-11-25T16:21:23;6;6;
55518;PMS5003;41724;51.176;-0.708;2022-11-25T16:23:53;8;8;
55518;PMS5003;41724;51.176;-0.708;2022-11-25T16:26:26;9;6;
55518;PMS5003;41724;51.176;-0.708;2022-11-25T16:28:56;8;8;
55518;PMS5003;41724;51.176;-0.708;2022-11-25T16:31:25;7;7;
55518;PMS5003;41724;51.176;-0.708;2022-11-25T16:33:53;5;5;
55518;PMS5003;41724;51.176;-0.708;2022-11-25T16:36:24;6;5;
55518;PMS5003;41724;51.176;-0.708;2022-11-25T16:38:52;9;7;
55518;PMS5003;41724;51.176;-0.708;2022-11-25T16:41:19;5;5;
55518;PMS5003;41724;51.176;-0.708;2022-11-25T16:43:49;7;6;
55518;PMS5003;41724;51.176;-0.708;2022-11-25T16:46:17;13;12;
55518;PMS5003;41724;51.176;-0.708;2022-11-25T16:48:46;14;13;
55518;PMS5003;41724;51.176;-0.708;2022-11-25T16:51:13;10;10;
55518;PMS5003;41724;51.176;-0.708;2022-11-25T16:53:43;19;18;
55518;PMS5003;41724;51.176;-0.708;2022-11-25T16:56:11;19;18;
55518;PMS5003;41724;51.176;-0.708;2022-11-25T16:58:40;29;28;
55518;PMS5003;41724;51.176;-0.708;2022-11-25T17:01:10;32;30;